Bridge Lake, Canada
Current Conditions -  °F | °C
As of 12:14 AM on Friday 28 Nov 2014 (Local Time) from CYIN Reporting Station
Light Snow Light Snow  
Wind Chill: -11°   Ceiling: 1000
Heat Index:   Visibility: 0.75mi
Dew Point:   Wind: 22mph
Humidity: 92%   Direction: 320°NW
Pressure: 29.5"   Gusts: NA
Location:  51.48°N, 120.7°W
Report Text: CYIN 280814Z AUTO 32019KT 3/4SM -SN VV010 M13/M14 A2950 RMK SLP033
Loading
Personal Weather Stations






























Interactive Weather Map New forecast layout! Learn more

10-Day Weather Forecast

Advertisements
Track Severe Weather on mobile